Time;durP1;ratioP1;P1;durP2;ratioP2;P2;SDS_P1;SDS_P2;PMS_P1;PMS_P2;Temp;Humidity;BMP_temperature;BMP_pressure;BME280_temperature;BME280_humidity;BME280_pressure;Samples;Min_cycle;Max_cycle;Signal;HPM_P1;HPM_P2
2021/07/26 00:00:21;;;;;;;3.13;2.93;;;20.00;99.90;;;;;;4974522;28;20200;-70
2021/07/26 00:02:46;;;;;;;3.60;3.30;;;20.10;99.90;;;;;;4975003;28;20420;-70
2021/07/26 00:05:12;;;;;;;5.10;3.13;;;20.20;99.90;;;;;;4974610;28;20188;-70
2021/07/26 00:07:38;;;;;;;3.90;3.60;;;20.30;99.90;;;;;;4974675;28;20176;-70
2021/07/26 00:10:05;;;;;;;3.60;3.30;;;20.40;99.90;;;;;;4974870;28;20427;-70
2021/07/26 00:12:32;;;;;;;3.67;3.37;;;20.50;99.90;;;;;;4974550;28;20432;-71
2021/07/26 00:15:00;;;;;;;3.10;2.87;;;20.50;99.90;;;;;;4974919;28;20760;-70
2021/07/26 00:17:26;;;;;;;3.80;3.50;;;20.50;99.90;;;;;;4974963;28;20456;-70
2021/07/26 00:19:52;;;;;;;4.03;3.73;;;20.50;99.90;;;;;;4974915;28;20408;-70
2021/07/26 00:22:17;;;;;;;3.80;3.30;;;20.40;99.90;;;;;;4974084;28;20904;-70
2021/07/26 00:24:43;;;;;;;5.00;3.57;;;20.40;99.90;;;;;;4974629;28;20419;-70
2021/07/26 00:27:08;;;;;;;3.60;3.17;;;20.40;99.90;;;;;;4974864;28;20173;-70
2021/07/26 00:29:34;;;;;;;5.53;3.07;;;20.40;99.90;;;;;;4974950;28;20669;-70
2021/07/26 00:31:59;;;;;;;3.90;3.50;;;20.50;99.90;;;;;;4974317;28;20500;-70
2021/07/26 00:34:26;;;;;;;3.70;3.30;;;20.60;99.90;;;;;;4974251;28;20219;-70
2021/07/26 00:36:57;;;;;;;3.50;3.20;;;20.60;99.90;;;;;;4975052;28;20172;-70
2021/07/26 00:39:24;;;;;;;3.83;3.53;;;20.70;99.90;;;;;;4974453;28;20404;-70
2021/07/26 00:41:51;;;;;;;3.93;3.20;;;20.70;99.90;;;;;;4974616;28;20795;-70
2021/07/26 00:44:17;;;;;;;3.77;3.47;;;20.70;99.90;;;;;;4973874;28;20822;-70
2021/07/26 00:46:45;;;;;;;4.20;3.80;;;20.70;99.90;;;;;;4974909;28;20413;-70
2021/07/26 00:49:13;;;;;;;3.50;3.20;;;20.70;99.90;;;;;;4974678;28;20413;-70
2021/07/26 00:51:45;;;;;;;4.17;3.30;;;20.70;99.90;;;;;;4974418;28;20416;-70
2021/07/26 00:54:11;;;;;;;4.23;3.33;;;20.70;99.90;;;;;;4974435;28;20436;-70
2021/07/26 00:56:37;;;;;;;5.60;3.60;;;20.70;99.90;;;;;;4977516;28;20408;-70
2021/07/26 00:59:03;;;;;;;6.00;3.70;;;20.70;99.90;;;;;;4978335;28;20881;-70
2021/07/26 01:01:29;;;;;;;5.30;3.60;;;20.60;99.90;;;;;;4978322;28;20435;-69
2021/07/26 01:03:54;;;;;;;3.80;3.50;;;20.60;99.90;;;;;;4978172;28;20243;-70
2021/07/26 01:06:20;;;;;;;3.03;2.83;;;20.60;99.90;;;;;;4978010;28;20224;-70
2021/07/26 01:08:47;;;;;;;4.20;3.23;;;20.60;99.90;;;;;;4961034;28;20185;-70
2021/07/26 01:11:13;;;;;;;4.40;3.33;;;20.60;99.90;;;;;;4978178;28;20635;-70
2021/07/26 01:13:38;;;;;;;4.03;3.57;;;20.60;99.90;;;;;;4978048;28;20510;-70
2021/07/26 01:16:05;;;;;;;3.00;2.80;;;20.60;99.90;;;;;;4977756;28;20432;-70
2021/07/26 01:18:32;;;;;;;3.70;3.40;;;20.60;99.90;;;;;;4977834;28;20200;-69
2021/07/26 01:21:00;;;;;;;5.25;3.40;;;20.60;99.90;;;;;;4978023;28;20414;-70
2021/07/26 01:23:27;;;;;;;3.50;3.20;;;20.50;99.90;;;;;;4977851;28;20181;-70
2021/07/26 01:25:53;;;;;;;4.13;3.53;;;20.40;99.90;;;;;;4977973;28;20890;-70
2021/07/26 01:28:20;;;;;;;3.30;3.00;;;20.30;99.90;;;;;;4978176;28;20408;-70
2021/07/26 01:30:47;;;;;;;3.53;3.23;;;20.20;99.90;;;;;;4978185;28;20179;-70
2021/07/26 01:33:14;;;;;;;3.53;3.23;;;20.10;99.90;;;;;;4983929;28;20439;-70
2021/07/26 01:35:40;;;;;;;4.63;3.17;;;20.00;99.90;;;;;;4985437;28;20431;-69
2021/07/26 01:38:07;;;;;;;3.20;3.00;;;20.00;99.90;;;;;;4984174;28;20454;-70
2021/07/26 01:40:34;;;;;;;3.70;3.37;;;20.00;99.90;;;;;;4983454;28;20177;-69
2021/07/26 01:43:05;;;;;;;4.03;3.00;;;20.00;99.90;;;;;;4983151;28;20482;-69
2021/07/26 01:45:32;;;;;;;3.70;3.40;;;19.90;99.90;;;;;;4988380;28;20409;-70
2021/07/26 01:48:35;;;;;;;3.20;3.00;;;20.00;99.90;;;;;;4986380;28;20463;-69
2021/07/26 01:51:10;;;;;;;5.53;3.43;;;19.90;99.90;;;;;;4924496;29;20430;-69
2021/07/26 01:53:36;;;;;;;3.57;2.60;;;19.90;99.90;;;;;;4911841;29;20529;-69
2021/07/26 01:56:02;;;;;;;3.10;2.90;;;20.00;99.90;;;;;;4928989;29;20506;-70
2021/07/26 01:58:28;;;;;;;3.60;3.30;;;20.10;99.90;;;;;;4927888;29;20210;-69
2021/07/26 02:00:54;;;;;;;3.50;3.20;;;20.10;99.90;;;;;;4928380;29;20191;-69
2021/07/26 02:03:19;;;;;;;3.13;2.90;;;20.10;99.90;;;;;;4927825;29;20469;-70
2021/07/26 02:05:45;;;;;;;3.63;3.33;;;20.10;99.90;;;;;;4924821;29;20199;-69
2021/07/26 02:08:10;;;;;;;4.17;3.30;;;20.10;99.90;;;;;;4925830;29;20207;-69
2021/07/26 02:10:36;;;;;;;3.70;3.33;;;20.10;99.90;;;;;;4926367;29;20195;-69
2021/07/26 02:13:02;;;;;;;3.40;3.10;;;20.10;99.90;;;;;;4932206;29;20422;-70
2021/07/26 02:15:27;;;;;;;3.80;3.17;;;20.00;99.90;;;;;;4930448;29;20183;-69
2021/07/26 02:17:53;;;;;;;3.17;2.83;;;20.00;99.90;;;;;;4928411;29;20234;-69
2021/07/26 02:20:19;;;;;;;3.80;3.00;;;19.90;99.90;;;;;;4929572;29;20199;-70
2021/07/26 02:22:44;;;;;;;3.80;3.50;;;19.90;99.90;;;;;;4929443;29;20201;-69
2021/07/26 02:25:11;;;;;;;3.83;3.50;;;19.80;99.90;;;;;;4928273;29;20183;-70
2021/07/26 02:27:36;;;;;;;3.70;3.40;;;19.70;99.90;;;;;;4986851;28;20340;-70
2021/07/26 02:30:02;;;;;;;3.77;3.33;;;19.70;99.90;;;;;;4988099;28;20437;-70
2021/07/26 02:32:28;;;;;;;3.90;3.30;;;19.70;99.90;;;;;;4988476;28;20729;-69
2021/07/26 02:34:54;;;;;;;3.63;3.20;;;19.50;99.90;;;;;;4986883;28;20416;-69
2021/07/26 02:37:19;;;;;;;3.60;3.30;;;19.50;99.90;;;;;;4992989;28;20212;-69
2021/07/26 02:39:45;;;;;;;4.30;3.90;;;19.50;99.90;;;;;;4992479;28;20193;-70
2021/07/26 02:42:10;;;;;;;3.80;3.50;;;19.50;99.90;;;;;;4991624;28;20172;-70
2021/07/26 02:44:36;;;;;;;3.43;3.20;;;19.40;99.90;;;;;;4990939;28;20717;-70
2021/07/26 02:47:01;;;;;;;3.90;3.07;;;19.40;99.90;;;;;;4990552;28;20173;-69
2021/07/26 02:49:27;;;;;;;3.63;3.33;;;19.30;99.90;;;;;;4989399;28;20232;-69
2021/07/26 02:51:52;;;;;;;4.53;3.43;;;19.30;99.90;;;;;;4990577;28;20232;-69
2021/07/26 02:54:18;;;;;;;4.17;3.50;;;19.30;99.90;;;;;;4989697;28;20200;-69
2021/07/26 02:56:44;;;;;;;6.03;3.43;;;19.30;99.90;;;;;;4985025;28;20177;-70
2021/07/26 02:59:09;;;;;;;3.50;3.20;;;19.30;99.90;;;;;;4987261;28;20340;-70
2021/07/26 03:01:37;;;;;;;3.50;3.20;;;19.50;99.90;;;;;;4988342;28;20496;-69
2021/07/26 03:04:02;;;;;;;2.90;2.70;;;19.60;99.90;;;;;;4988943;28;20189;-70
2021/07/26 03:06:28;;;;;;;3.10;2.80;;;19.70;99.90;;;;;;4989387;28;20429;-70
2021/07/26 03:08:53;;;;;;;3.60;3.10;;;19.80;99.90;;;;;;4986740;28;20184;-70
2021/07/26 03:11:19;;;;;;;3.60;3.30;;;19.90;99.90;;;;;;4989297;28;20181;-70
2021/07/26 03:13:45;;;;;;;3.70;3.07;;;19.90;99.90;;;;;;4988048;28;20212;-70
2021/07/26 03:16:12;;;;;;;3.73;3.30;;;20.00;99.90;;;;;;4988524;28;20181;-70
2021/07/26 03:18:38;;;;;;;3.20;2.93;;;20.10;99.90;;;;;;4981177;28;20535;-70
2021/07/26 03:21:04;;;;;;;3.60;2.80;;;20.10;99.90;;;;;;4978619;28;20436;-69
2021/07/26 03:23:31;;;;;;;4.37;3.47;;;20.10;99.90;;;;;;4977757;28;20507;-70
2021/07/26 03:25:57;;;;;;;3.13;2.83;;;20.20;99.90;;;;;;4977972;28;20440;-70
2021/07/26 03:28:23;;;;;;;2.80;2.60;;;20.20;99.90;;;;;;4978365;28;20523;-70
2021/07/26 03:30:48;;;;;;;2.80;2.60;;;20.20;99.90;;;;;;4977399;28;20678;-70
2021/07/26 03:33:14;;;;;;;3.27;3.07;;;20.20;99.90;;;;;;4977662;28;20224;-69
2021/07/26 03:35:39;;;;;;;3.37;3.07;;;20.20;99.90;;;;;;4977170;28;20169;-69
2021/07/26 03:38:05;;;;;;;3.23;2.97;;;20.10;99.90;;;;;;4975965;28;20515;-69
2021/07/26 03:40:32;;;;;;;3.70;3.20;;;20.00;99.90;;;;;;4975651;28;20311;-70
2021/07/26 03:42:57;;;;;;;3.47;3.17;;;19.90;99.90;;;;;;4975551;28;20208;-70
2021/07/26 03:45:24;;;;;;;3.10;2.80;;;19.90;99.90;;;;;;4981081;28;20408;-70
2021/07/26 03:47:50;;;;;;;4.10;3.70;;;19.90;99.90;;;;;;4982236;28;20180;-69
2021/07/26 03:50:16;;;;;;;3.40;3.10;;;19.90;99.90;;;;;;4976195;28;20902;-70
2021/07/26 03:52:53;;;;;;;3.87;3.57;;;20.00;99.90;;;;;;4975196;28;20467;-69
2021/07/26 03:55:24;;;;;;;3.83;3.20;;;20.10;99.90;;;;;;4975193;28;20897;-70
2021/07/26 03:57:51;;;;;;;3.30;3.00;;;20.10;99.90;;;;;;4975507;28;20572;-70
2021/07/26 04:00:18;;;;;;;3.10;2.90;;;20.10;99.90;;;;;;4975066;28;20412;-69
2021/07/26 04:05:40;;;;;;;2.87;2.50;;;20.20;99.90;;;;;;4982526;28;20444;-69
2021/07/26 04:08:08;;;;;;;2.93;2.73;;;20.20;99.90;;;;;;4987194;28;20404;-70
2021/07/26 04:10:39;;;;;;;4.93;3.23;;;20.20;99.90;;;;;;4987419;28;20447;-70
2021/07/26 04:13:05;;;;;;;3.60;3.30;;;20.20;99.90;;;;;;4986136;28;20491;-70
2021/07/26 04:15:30;;;;;;;3.50;3.20;;;20.20;99.90;;;;;;4983029;28;20424;-70
2021/07/26 04:17:56;;;;;;;3.80;3.50;;;20.20;99.90;;;;;;4978583;28;20204;-70
2021/07/26 04:20:22;;;;;;;3.00;2.80;;;20.20;99.90;;;;;;4976581;28;20192;-71
2021/07/26 04:22:47;;;;;;;3.60;3.30;;;20.30;99.90;;;;;;4975346;28;20227;-70
2021/07/26 04:25:13;;;;;;;4.17;2.97;;;20.30;99.90;;;;;;4957800;28;20177;-70
2021/07/26 04:27:38;;;;;;;3.20;2.90;;;20.30;99.90;;;;;;4974831;28;20177;-70
2021/07/26 04:30:05;;;;;;;4.20;3.20;;;20.30;99.90;;;;;;4974812;28;20546;-70
2021/07/26 04:32:38;;;;;;;3.70;3.40;;;20.30;99.90;;;;;;4974898;28;20423;-70
2021/07/26 04:35:06;;;;;;;3.83;3.53;;;20.20;99.90;;;;;;4975631;28;20279;-70
2021/07/26 04:37:31;;;;;;;3.27;2.97;;;20.30;99.90;;;;;;4975678;28;20456;-70
2021/07/26 04:39:57;;;;;;;3.20;2.73;;;20.30;99.90;;;;;;4975366;28;20786;-70
2021/07/26 04:42:22;;;;;;;3.67;3.27;;;20.40;99.90;;;;;;4958905;28;20419;-70
2021/07/26 04:44:48;;;;;;;4.83;3.20;;;20.40;99.90;;;;;;4978591;28;20208;-70
2021/07/26 04:47:14;;;;;;;4.07;3.07;;;20.50;99.90;;;;;;4976498;28;20524;-70
2021/07/26 04:49:39;;;;;;;3.43;3.13;;;20.50;99.90;;;;;;4975797;28;20185;-70
2021/07/26 04:52:05;;;;;;;3.87;3.00;;;20.50;99.90;;;;;;4976350;28;20181;-70
2021/07/26 04:54:30;;;;;;;4.00;3.50;;;20.50;99.90;;;;;;4978471;28;20667;-70
2021/07/26 04:56:56;;;;;;;3.50;3.20;;;20.60;99.90;;;;;;4978545;28;20184;-70
2021/07/26 04:59:21;;;;;;;3.70;3.40;;;20.60;99.90;;;;;;4978080;28;20523;-70
2021/07/26 05:01:47;;;;;;;3.73;3.10;;;20.70;99.90;;;;;;4977752;28;20180;-70
2021/07/26 05:04:12;;;;;;;2.97;2.77;;;20.70;99.90;;;;;;4977396;28;20204;-70
2021/07/26 05:06:38;;;;;;;4.07;3.67;;;20.70;99.90;;;;;;4975805;28;20662;-70
2021/07/26 05:09:03;;;;;;;6.70;2.93;;;20.80;99.90;;;;;;4975486;28;20181;-71
2021/07/26 05:11:29;;;;;;;2.93;2.73;;;20.80;99.90;;;;;;4978467;28;20521;-70
2021/07/26 05:13:54;;;;;;;3.70;3.40;;;20.80;99.90;;;;;;4977300;28;20215;-70
2021/07/26 05:16:20;;;;;;;3.27;3.07;;;20.80;99.90;;;;;;4975169;28;20208;-70
2021/07/26 05:18:45;;;;;;;5.27;3.27;;;20.80;99.90;;;;;;4974576;28;20646;-70
2021/07/26 05:21:11;;;;;;;3.85;3.55;;;20.90;99.90;;;;;;4973590;28;20418;-70
2021/07/26 05:23:36;;;;;;;4.30;3.90;;;20.90;99.90;;;;;;4981206;28;20199;-71
2021/07/26 05:26:02;;;;;;;3.40;3.00;;;20.90;99.90;;;;;;4974465;28;20257;-70
2021/07/26 05:28:28;;;;;;;4.10;3.63;;;21.00;99.90;;;;;;4967084;28;20209;-71
2021/07/26 05:30:53;;;;;;;4.60;3.33;;;20.90;99.90;;;;;;4974140;28;20200;-71
2021/07/26 05:33:19;;;;;;;3.63;3.33;;;20.90;99.90;;;;;;4974614;28;20220;-71
2021/07/26 05:35:45;;;;;;;3.40;3.10;;;20.90;99.90;;;;;;4974474;28;20634;-71
2021/07/26 05:38:10;;;;;;;3.63;3.33;;;20.90;99.90;;;;;;4974875;28;20224;-71
2021/07/26 05:40:41;;;;;;;3.60;3.30;;;20.90;99.90;;;;;;4974264;28;20471;-70
2021/07/26 05:43:06;;;;;;;3.90;3.50;;;21.00;99.90;;;;;;4978384;28;20205;-69
2021/07/26 05:45:32;;;;;;;4.27;3.20;;;21.00;99.90;;;;;;4979150;28;20431;-70
2021/07/26 05:47:58;;;;;;;3.70;3.40;;;21.00;99.90;;;;;;4986894;28;20185;-70
2021/07/26 05:50:23;;;;;;;4.30;3.00;;;21.00;99.90;;;;;;4976155;28;20276;-70
2021/07/26 05:52:49;;;;;;;3.80;3.50;;;21.10;99.90;;;;;;4977119;28;20220;-69
2021/07/26 05:55:15;;;;;;;3.57;3.27;;;21.10;99.90;;;;;;4977350;28;20259;-71
2021/07/26 05:57:46;;;;;;;3.97;3.63;;;21.10;99.90;;;;;;4976019;28;20210;-71
2021/07/26 06:00:15;;;;;;;6.43;4.17;;;21.10;99.90;;;;;;4977154;28;20775;-70
2021/07/26 06:02:41;;;;;;;3.87;3.53;;;21.20;99.90;;;;;;4978223;28;20460;-70
2021/07/26 06:05:07;;;;;;;5.23;3.40;;;21.20;99.90;;;;;;4974825;28;20853;-71
2021/07/26 06:07:32;;;;;;;4.57;3.80;;;21.30;99.90;;;;;;4976430;28;20436;-70
2021/07/26 06:09:58;;;;;;;3.47;3.17;;;21.30;99.90;;;;;;4971286;28;20177;-71
2021/07/26 06:12:23;;;;;;;3.80;3.40;;;21.30;99.90;;;;;;4975473;28;20219;-71
2021/07/26 06:14:49;;;;;;;3.27;3.00;;;21.40;99.90;;;;;;4976171;28;20260;-71
2021/07/26 06:17:18;;;;;;;3.77;3.33;;;21.40;99.90;;;;;;4976098;28;20267;-71
2021/07/26 06:19:44;;;;;;;4.57;4.07;;;21.40;99.90;;;;;;4977129;28;20207;-71
2021/07/26 06:22:09;;;;;;;4.10;3.80;;;21.40;99.90;;;;;;4976670;28;20448;-72
2021/07/26 06:24:35;;;;;;;4.20;3.73;;;21.50;99.90;;;;;;4976562;28;20193;-70
2021/07/26 06:27:01;;;;;;;3.60;3.30;;;21.50;99.90;;;;;;4978074;28;20228;-69
2021/07/26 06:29:26;;;;;;;3.10;2.90;;;21.50;99.90;;;;;;4975637;28;20181;-71
2021/07/26 06:31:54;;;;;;;4.80;3.37;;;21.50;99.90;;;;;;4973340;28;20246;-71
2021/07/26 06:34:20;;;;;;;3.50;3.30;;;21.50;99.90;;;;;;4972124;28;20254;-72
2021/07/26 06:36:45;;;;;;;5.17;3.10;;;21.60;99.90;;;;;;4959921;28;20518;-71
2021/07/26 06:39:12;;;;;;;3.20;2.90;;;21.60;99.90;;;;;;4976668;28;20193;-71
2021/07/26 06:41:38;;;;;;;4.60;3.40;;;21.70;99.90;;;;;;4973802;28;20180;-71
2021/07/26 06:44:04;;;;;;;3.57;3.27;;;21.80;99.90;;;;;;4976087;28;20470;-70
2021/07/26 06:46:29;;;;;;;3.30;3.10;;;21.80;99.90;;;;;;4976475;28;20436;-71
2021/07/26 06:48:55;;;;;;;3.67;3.37;;;21.90;99.90;;;;;;4975809;28;20733;-71
2021/07/26 06:51:22;;;;;;;3.70;3.30;;;22.00;99.90;;;;;;4976617;28;20220;-72
2021/07/26 06:53:48;;;;;;;4.20;3.37;;;22.10;99.90;;;;;;4974069;28;20215;-69
2021/07/26 06:56:14;;;;;;;3.70;3.40;;;22.10;99.90;;;;;;4976347;28;20455;-70
2021/07/26 06:58:41;;;;;;;3.73;3.33;;;22.10;99.90;;;;;;4976313;28;20504;-70
2021/07/26 07:01:14;;;;;;;4.13;3.50;;;22.20;99.90;;;;;;4976172;28;20201;-71
2021/07/26 07:03:41;;;;;;;3.67;3.20;;;22.20;99.90;;;;;;4972274;28;20474;-70
2021/07/26 07:06:12;;;;;;;3.63;3.33;;;22.20;99.90;;;;;;4976309;28;20423;-70
2021/07/26 07:08:39;;;;;;;3.40;3.10;;;22.20;99.90;;;;;;4974695;28;20436;-70
2021/07/26 07:11:08;;;;;;;3.60;2.90;;;22.20;99.90;;;;;;4955640;29;20405;-72
2021/07/26 07:13:35;;;;;;;3.50;3.20;;;22.20;99.90;;;;;;4956055;28;20445;-72
2021/07/26 07:16:01;;;;;;;3.77;3.20;;;22.20;99.90;;;;;;4957122;29;20492;-72
2021/07/26 07:18:27;;;;;;;3.77;3.43;;;22.20;99.90;;;;;;4970609;28;20552;-71
2021/07/26 07:20:53;;;;;;;3.93;3.30;;;22.20;99.90;;;;;;4976260;28;20591;-70
2021/07/26 07:23:19;;;;;;;3.53;3.10;;;22.30;99.90;;;;;;4976655;28;20586;-70
2021/07/26 07:25:44;;;;;;;4.40;3.30;;;22.30;99.90;;;;;;4977416;28;20177;-69
2021/07/26 07:28:10;;;;;;;3.10;2.90;;;22.40;99.90;;;;;;4958470;28;20189;-69
2021/07/26 07:30:35;;;;;;;3.60;3.20;;;22.40;99.90;;;;;;4976149;28;20192;-70
2021/07/26 07:33:01;;;;;;;3.47;3.17;;;22.20;99.90;;;;;;4975261;28;20206;-70
2021/07/26 07:35:28;;;;;;;3.90;3.33;;;22.30;99.90;;;;;;4975226;28;20204;-70
2021/07/26 07:37:53;;;;;;;3.40;3.10;;;22.30;99.90;;;;;;4970167;28;20295;-70
2021/07/26 07:40:20;;;;;;;4.07;3.17;;;22.30;99.90;;;;;;4964027;28;20516;-70
2021/07/26 07:42:45;;;;;;;4.53;3.50;;;22.30;99.90;;;;;;4972155;28;20205;-71
2021/07/26 07:45:11;;;;;;;4.97;3.40;;;22.20;99.90;;;;;;4972254;28;20439;-70
2021/07/26 07:47:39;;;;;;;3.90;3.47;;;22.20;99.90;;;;;;4970683;28;20292;-72
2021/07/26 07:50:05;;;;;;;5.03;3.50;;;22.30;99.90;;;;;;4970689;28;20705;-71
2021/07/26 07:52:31;;;;;;;4.15;3.22;;;22.30;99.90;;;;;;4970934;28;20430;-71
2021/07/26 07:54:56;;;;;;;6.10;4.20;;;22.20;99.90;;;;;;4970364;28;20208;-70
2021/07/26 07:57:24;;;;;;;3.90;3.50;;;22.10;99.90;;;;;;4971852;28;20235;-71
2021/07/26 07:59:50;;;;;;;3.53;3.23;;;22.20;99.90;;;;;;4972471;28;20184;-70
2021/07/26 08:02:15;;;;;;;3.70;3.20;;;22.10;99.90;;;;;;4972256;28;20420;-71
2021/07/26 08:04:41;;;;;;;5.50;4.00;;;22.10;99.90;;;;;;4971486;28;20207;-71
2021/07/26 08:07:07;;;;;;;4.23;3.80;;;22.10;99.90;;;;;;4970809;28;20673;-71
2021/07/26 08:09:33;;;;;;;21.27;5.40;;;22.10;99.90;;;;;;4972069;28;20577;-70
2021/07/26 08:11:58;;;;;;;22.33;5.90;;;22.10;99.90;;;;;;4971789;28;20185;-72
2021/07/26 08:14:24;;;;;;;11.63;5.17;;;22.10;99.90;;;;;;4970534;28;20428;-70
2021/07/26 08:16:50;;;;;;;4.47;3.93;;;22.20;99.90;;;;;;4971713;28;20909;-71
2021/07/26 08:19:15;;;;;;;4.90;4.00;;;22.40;99.90;;;;;;4970884;28;20228;-71
2021/07/26 08:21:41;;;;;;;8.00;4.93;;;22.40;99.90;;;;;;4972159;28;20177;-71
2021/07/26 08:24:06;;;;;;;6.97;4.00;;;22.30;99.90;;;;;;4972498;28;20204;-71
2021/07/26 08:26:32;;;;;;;6.30;4.23;;;22.30;99.90;;;;;;4953373;28;20546;-70
2021/07/26 08:28:57;;;;;;;5.50;5.00;;;22.10;99.90;;;;;;4964350;28;20208;-71
2021/07/26 08:31:23;;;;;;;4.90;4.50;;;22.20;99.90;;;;;;4972851;28;20263;-71
2021/07/26 08:33:48;;;;;;;5.60;5.10;;;22.30;99.90;;;;;;4972582;28;20741;-71
2021/07/26 08:36:14;;;;;;;6.77;5.13;;;22.30;99.90;;;;;;4974449;28;20189;-71
2021/07/26 08:38:39;;;;;;;4.83;4.40;;;22.50;99.90;;;;;;4978298;28;20570;-69
2021/07/26 08:41:05;;;;;;;6.43;4.60;;;22.40;99.90;;;;;;4978963;28;20192;-71
2021/07/26 08:43:31;;;;;;;8.20;5.40;;;22.50;99.90;;;;;;4953595;28;20734;-71
2021/07/26 08:45:58;;;;;;;5.00;4.50;;;22.50;99.90;;;;;;4952677;29;20890;-72
2021/07/26 08:48:25;;;;;;;6.13;4.90;;;22.50;99.90;;;;;;4955479;28;20629;-71
2021/07/26 08:50:56;;;;;;;6.70;3.77;;;22.60;99.90;;;;;;4972271;28;20515;-71
2021/07/26 08:53:24;;;;;;;4.30;3.90;;;22.70;99.90;;;;;;4971763;28;20451;-70
2021/07/26 08:55:50;;;;;;;4.13;3.63;;;22.70;99.90;;;;;;4972473;28;20419;-70
2021/07/26 08:58:16;;;;;;;4.00;3.70;;;22.80;99.90;;;;;;4972006;28;20463;-71
2021/07/26 09:00:42;;;;;;;4.07;3.67;;;22.70;99.90;;;;;;4955920;28;20417;-71
2021/07/26 09:03:08;;;;;;;4.07;3.70;;;22.70;99.90;;;;;;4977495;28;20216;-71
2021/07/26 09:05:34;;;;;;;5.60;3.80;;;22.70;99.90;;;;;;4982528;28;20452;-70
2021/07/26 09:08:02;;;;;;;4.23;3.83;;;22.70;99.90;;;;;;4967935;28;20449;-71
2021/07/26 09:10:33;;;;;;;4.10;3.80;;;22.70;99.90;;;;;;4967923;28;20486;-70
2021/07/26 09:13:01;;;;;;;3.93;3.63;;;22.60;99.90;;;;;;4969338;28;20586;-71
2021/07/26 09:15:38;;;;;;;4.70;4.13;;;22.70;99.90;;;;;;4971095;28;20440;-71
2021/07/26 09:18:17;;;;;;;4.50;4.10;;;22.70;99.90;;;;;;4973816;28;20511;-70
2021/07/26 09:20:51;;;;;;;4.57;4.17;;;22.80;99.90;;;;;;4967620;28;20928;-70
2021/07/26 09:23:18;;;;;;;4.27;3.97;;;23.00;99.90;;;;;;4975914;28;20447;-71
2021/07/26 09:25:45;;;;;;;3.90;3.60;;;23.10;99.90;;;;;;4973081;28;21267;-71
2021/07/26 09:28:20;;;;;;;6.20;3.67;;;23.20;99.90;;;;;;4976017;28;20498;-71
2021/07/26 09:30:47;;;;;;;4.47;3.67;;;23.20;99.90;;;;;;4976007;28;20549;-71
2021/07/26 09:33:19;;;;;;;3.93;3.63;;;23.20;99.90;;;;;;4967006;28;20515;-72
2021/07/26 09:35:45;;;;;;;4.30;3.90;;;23.20;99.90;;;;;;4957958;28;20934;-72
2021/07/26 09:38:11;;;;;;;5.43;4.10;;;23.20;99.90;;;;;;4975687;28;20475;-71
2021/07/26 09:40:37;;;;;;;5.03;4.43;;;23.10;99.90;;;;;;4975602;28;20857;-70
2021/07/26 09:43:22;;;;;;;4.27;3.97;;;23.00;99.90;;;;;;4976110;28;20460;-71
2021/07/26 09:45:53;;;;;;;4.33;4.00;;;22.90;99.90;;;;;;4978054;28;20198;-71
2021/07/26 09:48:21;;;;;;;5.10;4.57;;;22.90;99.90;;;;;;4971477;28;20450;-71
2021/07/26 09:50:49;;;;;;;4.23;3.93;;;22.90;99.90;;;;;;4971481;28;21158;-70
2021/07/26 09:53:16;;;;;;;4.67;3.90;;;22.90;99.90;;;;;;4974717;28;20440;-70
2021/07/26 09:55:45;;;;;;;4.37;4.00;;;23.00;99.90;;;;;;4972432;28;20440;-72
2021/07/26 09:58:12;;;;;;;5.40;3.70;;;23.00;99.90;;;;;;4956714;28;20988;-69
2021/07/26 10:00:39;;;;;;;4.30;3.90;;;23.00;99.90;;;;;;4974033;28;20432;-70
2021/07/26 10:03:10;;;;;;;4.80;4.10;;;23.00;99.90;;;;;;4974591;28;20436;-70
2021/07/26 10:05:37;;;;;;;4.77;3.30;;;23.20;99.90;;;;;;4956752;28;20628;-70
2021/07/26 10:08:04;;;;;;;4.07;3.77;;;23.30;99.90;;;;;;4960750;28;20453;-70
2021/07/26 10:10:41;;;;;;;4.00;3.63;;;23.50;99.90;;;;;;4955168;29;20427;-70
2021/07/26 10:13:08;;;;;;;3.67;3.37;;;23.70;99.90;;;;;;4967636;28;20467;-71
2021/07/26 10:15:35;;;;;;;4.10;3.70;;;23.80;99.90;;;;;;4974068;28;21190;-70
2021/07/26 10:18:01;;;;;;;3.97;3.67;;;23.80;99.90;;;;;;4974246;28;20601;-70
2021/07/26 10:20:29;;;;;;;3.70;3.37;;;23.90;99.90;;;;;;4975716;28;20421;-70
2021/07/26 10:23:00;;;;;;;4.00;3.70;;;24.00;99.90;;;;;;4974771;28;20444;-71
2021/07/26 10:25:31;;;;;;;4.33;4.03;;;24.00;99.90;;;;;;4975163;28;20405;-71
2021/07/26 10:27:59;;;;;;;4.20;3.80;;;24.00;99.90;;;;;;4974591;28;20428;-71
2021/07/26 10:30:33;;;;;;;3.70;3.50;;;24.00;99.90;;;;;;4965944;28;20437;-71
2021/07/26 10:33:00;;;;;;;3.73;3.43;;;24.00;99.90;;;;;;4974790;28;20197;-69
2021/07/26 10:35:38;;;;;;;3.87;3.57;;;24.00;99.90;;;;;;4976809;28;20412;-70
2021/07/26 10:38:09;;;;;;;3.57;3.27;;;24.00;99.90;;;;;;4977245;28;20452;-69
2021/07/26 10:40:39;;;;;;;3.53;3.30;;;24.00;99.90;;;;;;4976684;28;20415;-70
2021/07/26 10:43:05;;;;;;;3.80;3.50;;;24.10;99.90;;;;;;4976843;28;20432;-69
2021/07/26 10:45:31;;;;;;;3.67;3.23;;;24.20;99.90;;;;;;4977145;28;20423;-71
2021/07/26 10:48:27;;;;;;;4.00;3.60;;;24.20;99.90;;;;;;4976711;28;20428;-70
2021/07/26 10:50:57;;;;;;;3.43;3.23;;;24.10;99.90;;;;;;4976723;28;20168;-70
2021/07/26 10:53:34;;;;;;;3.30;3.00;;;24.00;99.90;;;;;;4976560;28;20957;-70
2021/07/26 10:56:04;;;;;;;3.50;3.20;;;24.00;99.60;;;;;;4976582;28;20426;-69
2021/07/26 10:58:38;;;;;;;3.30;3.10;;;24.20;99.60;;;;;;4976773;28;20460;-70
2021/07/26 11:01:19;;;;;;;3.27;3.07;;;24.10;98.70;;;;;;4976407;28;20889;-70
2021/07/26 11:03:45;;;;;;;3.43;3.13;;;24.10;98.60;;;;;;4976433;28;20494;-70
2021/07/26 11:06:30;;;;;;;3.63;3.33;;;24.10;98.50;;;;;;4976188;28;20428;-70
2021/07/26 11:08:56;;;;;;;2.80;2.60;;;24.20;98.70;;;;;;4976470;28;20510;-70
2021/07/26 11:11:40;;;;;;;4.13;3.23;;;24.20;98.40;;;;;;4976803;28;20255;-70
2021/07/26 11:14:05;;;;;;;3.40;3.10;;;24.30;98.10;;;;;;4976155;28;20196;-70
2021/07/26 11:16:54;;;;;;;2.87;2.67;;;24.20;98.00;;;;;;4976621;28;20466;-71
2021/07/26 11:19:49;;;;;;;3.60;3.30;;;24.20;97.90;;;;;;4957231;28;20439;-71
2021/07/26 11:22:15;;;;;;;2.90;2.70;;;24.30;97.80;;;;;;4957167;28;20618;-71
2021/07/26 11:24:41;;;;;;;2.80;2.57;;;24.40;97.70;;;;;;4956732;28;20409;-71
2021/07/26 11:27:33;;;;;;;2.70;2.50;;;24.50;97.80;;;;;;4957226;28;20209;-71
2021/07/26 11:29:59;;;;;;;4.60;3.03;;;24.60;97.70;;;;;;4949297;29;20429;-70
2021/07/26 11:32:26;;;;;;;3.40;3.10;;;24.50;97.30;;;;;;4957041;28;20468;-71
2021/07/26 11:35:02;;;;;;;3.10;2.90;;;24.30;97.60;;;;;;4959780;28;20428;-70
2021/07/26 11:37:33;;;;;;;2.83;2.63;;;24.40;97.50;;;;;;4959759;29;20898;-71
2021/07/26 11:40:00;;;;;;;2.70;2.50;;;24.60;97.30;;;;;;4959224;28;20425;-70
2021/07/26 11:42:37;;;;;;;3.20;2.90;;;24.70;97.00;;;;;;4958379;28;20429;-70
2021/07/26 11:45:05;;;;;;;3.63;3.33;;;24.70;97.10;;;;;;4960142;29;20413;-70
2021/07/26 11:47:38;;;;;;;2.70;2.50;;;24.80;96.80;;;;;;4958686;29;20454;-71
2021/07/26 11:50:16;;;;;;;3.00;2.80;;;24.90;96.90;;;;;;4961450;29;20445;-71
2021/07/26 11:53:02;;;;;;;3.60;2.53;;;25.00;97.00;;;;;;4962201;28;20503;-71
2021/07/26 11:55:32;;;;;;;2.90;2.70;;;25.30;96.80;;;;;;4959479;29;20425;-70
2021/07/26 11:58:02;;;;;;;3.70;3.10;;;25.30;96.70;;;;;;4959664;29;20440;-70
2021/07/26 12:00:38;;;;;;;3.20;2.90;;;25.20;96.40;;;;;;4965811;29;20189;-70
2021/07/26 12:03:04;;;;;;;3.40;3.10;;;25.10;96.40;;;;;;4957978;28;20481;-70
2021/07/26 12:05:34;;;;;;;4.27;2.80;;;25.10;96.30;;;;;;4956316;28;20440;-71
2021/07/26 12:08:01;;;;;;;3.03;2.83;;;25.10;95.80;;;;;;4962871;28;20475;-70
2021/07/26 12:10:37;;;;;;;3.40;2.53;;;25.20;95.40;;;;;;4955420;28;20956;-70
2021/07/26 12:13:11;;;;;;;3.10;2.90;;;25.20;95.10;;;;;;4963001;28;20510;-69
2021/07/26 12:15:41;;;;;;;3.50;3.10;;;25.20;96.00;;;;;;4964702;28;20448;-70
2021/07/26 12:18:11;;;;;;;3.93;2.57;;;25.30;95.60;;;;;;4965688;28;20469;-70
2021/07/26 12:20:57;;;;;;;2.67;2.47;;;25.30;95.20;;;;;;4953306;28;20413;-70
2021/07/26 12:23:25;;;;;;;2.77;2.50;;;25.30;95.20;;;;;;4954234;29;20429;-69
2021/07/26 12:25:56;;;;;;;3.27;3.07;;;25.50;95.10;;;;;;4976908;28;20420;-71
2021/07/26 12:28:39;;;;;;;3.07;2.57;;;25.40;95.20;;;;;;4968839;28;20455;-70
2021/07/26 12:31:29;;;;;;;3.43;2.90;;;25.40;95.40;;;;;;4953286;29;20425;-70
2021/07/26 12:34:23;;;;;;;3.07;2.77;;;25.30;95.40;;;;;;4953237;29;21005;-70
2021/07/26 12:36:50;;;;;;;4.33;2.93;;;25.30;95.60;;;;;;4955906;28;20414;-70
2021/07/26 12:39:17;;;;;;;27.40;7.83;;;25.40;95.70;;;;;;4953803;29;20497;-71
2021/07/26 12:41:53;;;;;;;11.27;3.83;;;25.50;95.60;;;;;;4952817;28;20433;-71
2021/07/26 12:44:25;;;;;;;9.03;3.43;;;25.50;95.30;;;;;;4952338;28;20806;-69
2021/07/26 12:46:52;;;;;;;27.53;8.50;;;25.50;95.10;;;;;;4951381;28;20433;-70
2021/07/26 12:49:21;;;;;;;8.70;4.45;;;25.60;95.10;;;;;;4950276;29;20451;-71
2021/07/26 12:51:49;;;;;;;7.70;4.07;;;25.50;95.00;;;;;;4968431;28;20180;-70